createdAt,value
2018-01-06T00:00:20.539Z,997.55
2018-01-06T00:01:20.766Z,997.56
2018-01-06T00:02:20.493Z,997.58
2018-01-06T00:03:20.508Z,997.60
2018-01-06T00:04:20.444Z,997.56
2018-01-06T00:05:20.420Z,997.57
2018-01-06T00:06:20.548Z,997.56
2018-01-06T00:07:20.371Z,997.57
2018-01-06T00:08:20.348Z,997.53
2018-01-06T00:09:20.324Z,997.50
2018-01-06T00:10:20.299Z,997.50
2018-01-06T00:11:20.275Z,997.51
2018-01-06T00:12:20.253Z,997.48
2018-01-06T00:13:20.227Z,997.49
2018-01-06T00:14:20.203Z,997.47
2018-01-06T00:15:20.179Z,997.50
2018-01-06T00:16:20.155Z,997.53
2018-01-06T00:17:20.129Z,997.50
2018-01-06T00:18:20.105Z,997.52
2018-01-06T00:19:20.081Z,997.52
2018-01-06T00:20:20.056Z,997.51
2018-01-06T00:21:20.132Z,997.53
2018-01-06T00:22:20.008Z,997.58
2018-01-06T00:23:19.987Z,997.55
2018-01-06T00:24:19.959Z,997.61
2018-01-06T00:25:19.935Z,997.60
2018-01-06T00:26:20.111Z,997.63
2018-01-06T00:27:19.888Z,997.68
2018-01-06T00:28:19.863Z,997.70
2018-01-06T00:29:19.839Z,997.75
2018-01-06T00:30:19.815Z,997.77
2018-01-06T00:31:19.796Z,997.81
2018-01-06T00:32:19.770Z,997.80
2018-01-06T00:33:19.741Z,997.83
2018-01-06T00:34:19.717Z,997.84
2018-01-06T00:35:19.693Z,997.86
2018-01-06T00:36:19.669Z,997.88
2018-01-06T00:37:19.643Z,997.90
2018-01-06T00:38:19.619Z,997.92
2018-01-06T00:39:19.595Z,997.92
2018-01-06T00:40:19.572Z,997.94
2018-01-06T00:41:19.595Z,997.97
2018-01-06T00:42:19.521Z,997.99
2018-01-06T00:43:19.506Z,997.98
2018-01-06T00:44:19.472Z,997.97
2018-01-06T00:45:19.448Z,997.98
2018-01-06T00:46:19.423Z,997.99
2018-01-06T00:47:19.398Z,998.00
2018-01-06T00:48:19.375Z,998.04
2018-01-06T00:49:19.349Z,997.98
2018-01-06T00:50:19.327Z,997.98
2018-01-06T00:51:19.301Z,997.95
2018-01-06T00:52:19.276Z,997.98
2018-01-06T00:53:19.253Z,998.02
2018-01-06T00:54:19.227Z,998.02
2018-01-06T00:55:19.203Z,998.03
2018-01-06T00:56:19.178Z,998.03
2018-01-06T00:57:19.155Z,998.02
2018-01-06T00:58:19.129Z,998.01
2018-01-06T00:59:19.106Z,998.01
2018-01-06T01:00:19.136Z,998.02
2018-01-06T01:01:19.057Z,998.02
2018-01-06T01:02:19.033Z,998.04
2018-01-06T01:03:19.008Z,998.05
2018-01-06T01:04:18.984Z,998.05
2018-01-06T01:05:18.959Z,998.09
2018-01-06T01:06:18.935Z,998.15
2018-01-06T01:07:19.160Z,998.17
2018-01-06T01:08:18.886Z,998.16
2018-01-06T01:09:18.862Z,998.15
2018-01-06T01:10:18.837Z,998.23
2018-01-06T01:11:18.813Z,998.29
2018-01-06T01:12:18.788Z,998.26
2018-01-06T01:13:18.764Z,998.26
2018-01-06T01:14:18.740Z,998.22
2018-01-06T01:15:18.718Z,998.24
2018-01-06T01:16:18.691Z,998.24
2018-01-06T01:17:18.667Z,998.26
2018-01-06T01:18:18.643Z,998.27
2018-01-06T01:19:18.619Z,998.27
2018-01-06T01:20:18.592Z,998.33
2018-01-06T01:21:18.569Z,998.35
2018-01-06T01:22:18.544Z,998.32
2018-01-06T01:23:18.520Z,998.32
2018-01-06T01:24:18.494Z,998.34
2018-01-06T01:25:18.471Z,998.30
2018-01-06T01:26:18.446Z,998.33
2018-01-06T01:27:18.421Z,998.32
2018-01-06T01:28:18.401Z,998.34
2018-01-06T01:29:18.373Z,998.30
2018-01-06T01:30:18.349Z,998.31
2018-01-06T01:31:18.325Z,998.31
2018-01-06T01:32:18.449Z,998.28
2018-01-06T01:33:18.275Z,998.25
2018-01-06T01:34:18.251Z,998.24
2018-01-06T01:35:18.226Z,998.32
2018-01-06T01:36:18.201Z,998.39
2018-01-06T01:37:18.177Z,998.44
2018-01-06T01:38:18.152Z,998.47
2018-01-06T01:39:18.129Z,998.41
2018-01-06T01:40:18.103Z,998.45
2018-01-06T01:41:18.080Z,998.43
2018-01-06T01:42:18.055Z,998.44
2018-01-06T01:43:18.033Z,998.43
2018-01-06T01:44:18.061Z,998.45
2018-01-06T01:45:17.980Z,998.45
2018-01-06T01:46:17.956Z,998.51
2018-01-06T01:47:17.933Z,998.51
2018-01-06T01:48:17.909Z,998.51
2018-01-06T01:49:17.883Z,998.51
2018-01-06T01:50:17.859Z,998.56
2018-01-06T01:51:17.835Z,998.58
2018-01-06T01:52:17.809Z,998.59
2018-01-06T01:53:17.785Z,998.61
2018-01-06T01:54:17.761Z,998.59
2018-01-06T01:55:17.736Z,998.63
2018-01-06T01:56:17.711Z,998.66
2018-01-06T01:57:17.688Z,998.68
2018-01-06T01:58:17.813Z,998.70
2018-01-06T01:59:17.640Z,998.73
2018-01-06T02:00:17.615Z,998.71
2018-01-06T02:01:17.590Z,998.74
2018-01-06T02:02:17.566Z,998.73
2018-01-06T02:03:17.543Z,998.74
2018-01-06T02:04:17.516Z,998.70
2018-01-06T02:05:17.492Z,998.70
2018-01-06T02:06:17.467Z,998.68
2018-01-06T02:07:17.443Z,998.67
2018-01-06T02:08:17.419Z,998.71
2018-01-06T02:09:17.394Z,998.70
2018-01-06T02:10:17.370Z,998.74
2018-01-06T02:11:17.359Z,998.75
2018-01-06T02:12:17.319Z,998.77
2018-01-06T02:13:17.296Z,998.80
2018-01-06T02:14:17.420Z,998.86
2018-01-06T02:15:17.247Z,998.87
2018-01-06T02:16:17.222Z,998.85
2018-01-06T02:17:17.198Z,998.93
2018-01-06T02:18:17.174Z,998.90
2018-01-06T02:19:17.150Z,998.90
2018-01-06T02:20:17.124Z,998.92
2018-01-06T02:21:17.100Z,998.90
2018-01-06T02:22:17.075Z,998.97
2018-01-06T02:23:17.201Z,998.92
2018-01-06T02:24:17.029Z,998.93
2018-01-06T02:25:17.002Z,998.94
2018-01-06T02:26:16.978Z,998.88
2018-01-06T02:27:16.957Z,998.89
2018-01-06T02:28:17.030Z,998.84
2018-01-06T02:29:16.905Z,998.89
2018-01-06T02:30:16.884Z,998.84
2018-01-06T02:31:16.857Z,998.84
2018-01-06T02:32:16.831Z,998.84
2018-01-06T02:33:16.808Z,998.83
2018-01-06T02:34:16.784Z,998.84
2018-01-06T02:35:16.760Z,998.85
2018-01-06T02:36:16.736Z,998.80
2018-01-06T02:37:16.721Z,998.82
2018-01-06T02:38:16.686Z,998.82
2018-01-06T02:39:16.664Z,998.84
2018-01-06T02:40:16.641Z,998.84
2018-01-06T02:41:16.615Z,998.85
2018-01-06T02:42:16.591Z,998.88
2018-01-06T02:43:16.568Z,998.92
2018-01-06T02:44:16.541Z,998.91
2018-01-06T02:45:16.516Z,998.95
2018-01-06T02:46:16.492Z,998.95
2018-01-06T02:47:16.469Z,998.91
2018-01-06T02:48:16.444Z,998.97
2018-01-06T02:49:16.420Z,998.96
2018-01-06T02:50:16.396Z,998.95
2018-01-06T02:51:16.370Z,998.98
2018-01-06T02:52:16.346Z,998.96
2018-01-06T02:53:16.323Z,998.96
2018-01-06T02:54:16.297Z,998.97
2018-01-06T02:55:16.274Z,998.91
2018-01-06T02:56:16.250Z,998.93
2018-01-06T02:57:16.225Z,998.92
2018-01-06T02:58:16.202Z,999.01
2018-01-06T02:59:16.177Z,999.01
2018-01-06T03:00:16.152Z,999.00
2018-01-06T03:01:16.127Z,999.01
2018-01-06T03:02:16.104Z,999.06
2018-01-06T03:03:16.079Z,999.06
2018-01-06T03:04:16.062Z,999.15
2018-01-06T03:05:16.029Z,999.14
2018-01-06T03:06:16.006Z,999.15
2018-01-06T03:07:15.982Z,999.13
2018-01-06T03:08:15.958Z,999.19
2018-01-06T03:09:15.935Z,999.23
2018-01-06T03:10:15.910Z,999.16
2018-01-06T03:11:15.886Z,999.19
2018-01-06T03:12:15.861Z,999.22
2018-01-06T03:13:15.837Z,999.20
2018-01-06T03:14:15.812Z,999.18
2018-01-06T03:15:15.788Z,999.16
2018-01-06T03:16:15.763Z,999.16
2018-01-06T03:17:15.740Z,999.14
2018-01-06T03:18:15.716Z,999.18
2018-01-06T03:19:15.841Z,999.18
2018-01-06T03:20:15.666Z,999.18
2018-01-06T03:21:15.642Z,999.16
2018-01-06T03:22:15.617Z,999.19
2018-01-06T03:23:15.594Z,999.21
2018-01-06T03:24:15.870Z,999.19
2018-01-06T03:25:15.545Z,999.14
2018-01-06T03:26:15.522Z,999.13
2018-01-06T03:27:15.497Z,999.17
2018-01-06T03:28:15.473Z,999.18
2018-01-06T03:29:15.448Z,999.20
2018-01-06T03:30:15.426Z,999.23
2018-01-06T03:31:15.401Z,999.26
2018-01-06T03:32:15.375Z,999.21
2018-01-06T03:33:15.351Z,999.25
2018-01-06T03:34:15.328Z,999.20
2018-01-06T03:35:15.304Z,999.16
2018-01-06T03:36:15.278Z,999.14
2018-01-06T03:37:15.254Z,999.13
2018-01-06T03:38:15.231Z,999.15
2018-01-06T03:39:15.206Z,999.16
2018-01-06T03:40:15.182Z,999.13
2018-01-06T03:41:15.162Z,999.16
2018-01-06T03:42:15.135Z,999.13
2018-01-06T03:43:15.111Z,999.17
2018-01-06T03:44:15.084Z,999.21
2018-01-06T03:45:15.060Z,999.17
2018-01-06T03:46:15.037Z,999.20
2018-01-06T03:47:15.014Z,999.17
2018-01-06T03:48:15.290Z,999.15
2018-01-06T03:49:14.967Z,999.14
2018-01-06T03:50:14.940Z,999.11
2018-01-06T03:51:14.917Z,999.07
2018-01-06T03:52:14.891Z,999.06
2018-01-06T03:53:14.868Z,999.06
2018-01-06T03:54:14.845Z,999.07
2018-01-06T03:55:14.822Z,999.02
2018-01-06T03:56:14.796Z,999.04
2018-01-06T03:57:14.773Z,999.02
2018-01-06T03:58:14.848Z,999.05
2018-01-06T03:59:14.726Z,999.04
2018-01-06T04:00:14.700Z,999.08
2018-01-06T04:01:14.676Z,999.10
2018-01-06T04:02:14.653Z,999.11
2018-01-06T04:03:14.628Z,999.15
2018-01-06T04:04:14.603Z,999.18
2018-01-06T04:05:14.579Z,999.15
2018-01-06T04:06:14.557Z,999.15
2018-01-06T04:07:14.532Z,999.19
2018-01-06T04:08:14.508Z,999.17
2018-01-06T04:09:14.482Z,999.16
2018-01-06T04:10:14.461Z,999.19
2018-01-06T04:11:14.436Z,999.16
2018-01-06T04:12:14.411Z,999.21
2018-01-06T04:13:14.390Z,999.19
2018-01-06T04:14:14.362Z,999.17
2018-01-06T04:15:14.338Z,999.17
2018-01-06T04:16:14.314Z,999.19
2018-01-06T04:17:14.289Z,999.22
2018-01-06T04:18:14.266Z,999.22
2018-01-06T04:19:14.242Z,999.24
2018-01-06T04:20:14.218Z,999.26
2018-01-06T04:21:14.193Z,999.26
2018-01-06T04:22:14.169Z,999.29
2018-01-06T04:23:14.145Z,999.30
2018-01-06T04:24:14.122Z,999.29
2018-01-06T04:25:14.097Z,999.37
2018-01-06T04:26:14.072Z,999.34
2018-01-06T04:27:14.301Z,999.35
2018-01-06T04:28:14.023Z,999.40
2018-01-06T04:29:14.001Z,999.46
2018-01-06T04:30:13.977Z,999.45
2018-01-06T04:31:13.952Z,999.44
2018-01-06T04:32:13.927Z,999.47
2018-01-06T04:33:13.903Z,999.48
2018-01-06T04:34:13.879Z,999.51
2018-01-06T04:35:13.855Z,999.49
2018-01-06T04:36:13.831Z,999.53
2018-01-06T04:37:13.806Z,999.55
2018-01-06T04:38:13.782Z,999.54
2018-01-06T04:39:13.795Z,999.59
2018-01-06T04:40:13.736Z,999.59
2018-01-06T04:41:13.710Z,999.64
2018-01-06T04:42:13.685Z,999.67
2018-01-06T04:43:13.662Z,999.63
2018-01-06T04:44:13.637Z,999.71
2018-01-06T04:45:13.614Z,999.76
2018-01-06T04:46:13.588Z,999.75
2018-01-06T04:47:13.571Z,999.78
2018-01-06T04:48:13.540Z,999.83
2018-01-06T04:49:13.516Z,999.85
2018-01-06T04:50:13.493Z,999.81
2018-01-06T04:51:13.467Z,999.85
2018-01-06T04:52:13.443Z,999.86
2018-01-06T04:53:13.456Z,999.85
2018-01-06T04:54:13.645Z,999.90
2018-01-06T04:55:13.370Z,999.86
2018-01-06T04:56:13.345Z,999.90
2018-01-06T04:57:13.324Z,999.86
2018-01-06T04:58:13.297Z,999.86
2018-01-06T04:59:13.274Z,999.90
2018-01-06T05:00:13.499Z,999.92
2018-01-06T05:01:13.224Z,999.95
2018-01-06T05:02:13.201Z,999.89
2018-01-06T05:03:13.177Z,999.91
2018-01-06T05:04:13.153Z,999.93
2018-01-06T05:05:13.128Z,999.90
2018-01-06T05:06:13.105Z,999.96
2018-01-06T05:07:13.080Z,999.92
2018-01-06T05:08:13.055Z,999.95
2018-01-06T05:09:13.032Z,999.96
2018-01-06T05:10:13.008Z,999.96
2018-01-06T05:11:12.984Z,999.97
2018-01-06T05:12:12.960Z,999.98
2018-01-06T05:13:12.936Z,999.97
2018-01-06T05:14:12.912Z,999.95
2018-01-06T05:15:12.888Z,999.95
2018-01-06T05:16:12.861Z,1000.02
2018-01-06T05:17:12.838Z,1000.01
2018-01-06T05:18:12.815Z,999.99
2018-01-06T05:19:12.791Z,999.99
2018-01-06T05:20:12.767Z,1000.05
2018-01-06T05:21:12.742Z,1000.09
2018-01-06T05:22:12.718Z,1000.07
2018-01-06T05:23:12.696Z,1000.13
2018-01-06T05:24:12.671Z,1000.10
2018-01-06T05:25:12.646Z,1000.13
2018-01-06T05:26:12.623Z,1000.12
2018-01-06T05:27:12.600Z,1000.09
2018-01-06T05:28:12.575Z,1000.14
2018-01-06T05:29:12.551Z,1000.13
2018-01-06T05:30:12.526Z,1000.12
2018-01-06T05:31:12.503Z,1000.07
2018-01-06T05:32:12.478Z,1000.10
2018-01-06T05:33:12.454Z,1000.13
2018-01-06T05:34:12.431Z,1000.12
2018-01-06T05:35:12.411Z,1000.14
2018-01-06T05:36:12.382Z,1000.14
2018-01-06T05:37:12.360Z,1000.12
2018-01-06T05:38:12.336Z,1000.20
2018-01-06T05:39:12.311Z,1000.20
2018-01-06T05:40:12.288Z,1000.20
2018-01-06T05:41:12.265Z,1000.18
2018-01-06T05:42:12.239Z,1000.20
2018-01-06T05:43:12.217Z,1000.18
2018-01-06T05:44:12.190Z,1000.24
2018-01-06T05:45:12.167Z,1000.26
2018-01-06T05:46:12.144Z,1000.27
2018-01-06T05:47:12.120Z,1000.34
2018-01-06T05:48:12.095Z,1000.37
2018-01-06T05:49:12.078Z,1000.39
2018-01-06T05:50:12.047Z,1000.40
2018-01-06T05:51:12.023Z,1000.43
2018-01-06T05:52:11.998Z,1000.47
2018-01-06T05:53:11.975Z,1000.50
2018-01-06T05:54:11.955Z,1000.51
2018-01-06T05:55:11.927Z,1000.50
2018-01-06T05:56:11.902Z,1000.55
2018-01-06T05:57:11.880Z,1000.59
2018-01-06T05:58:11.855Z,1000.61
2018-01-06T05:59:11.831Z,1000.62
2018-01-06T06:00:11.807Z,1000.62
2018-01-06T06:01:11.784Z,1000.62
2018-01-06T06:02:11.759Z,1000.63
2018-01-06T06:03:11.734Z,1000.65
2018-01-06T06:04:11.710Z,1000.68
2018-01-06T06:05:11.686Z,1000.66
2018-01-06T06:06:11.662Z,1000.67
2018-01-06T06:07:11.639Z,1000.68
2018-01-06T06:08:11.614Z,1000.67
2018-01-06T06:09:11.589Z,1000.70
2018-01-06T06:10:11.566Z,1000.77
2018-01-06T06:11:11.541Z,1000.82
2018-01-06T06:12:11.517Z,1000.83
2018-01-06T06:13:11.497Z,1000.86
2018-01-06T06:14:11.470Z,1000.86
2018-01-06T06:15:11.446Z,1000.83
2018-01-06T06:16:11.422Z,1000.82
2018-01-06T06:17:11.400Z,1000.81
2018-01-06T06:18:11.373Z,1000.83
2018-01-06T06:19:11.350Z,1000.81
2018-01-06T06:20:11.325Z,1000.80
2018-01-06T06:21:11.302Z,1000.82
2018-01-06T06:22:11.278Z,1000.81
2018-01-06T06:23:11.255Z,1000.79
2018-01-06T06:24:11.481Z,1000.82
2018-01-06T06:25:11.206Z,1000.82
2018-01-06T06:26:11.181Z,1000.87
2018-01-06T06:27:11.161Z,1000.88
2018-01-06T06:28:11.133Z,1000.90
2018-01-06T06:29:11.109Z,1000.94
2018-01-06T06:30:11.085Z,1000.94
2018-01-06T06:31:11.061Z,1000.97
2018-01-06T06:32:11.035Z,1000.92
2018-01-06T06:33:11.013Z,1000.96
2018-01-06T06:34:10.987Z,1000.96
2018-01-06T06:35:10.963Z,1000.95
2018-01-06T06:36:10.938Z,1000.95
2018-01-06T06:37:10.917Z,1000.99
2018-01-06T06:38:10.893Z,1001.00
2018-01-06T06:39:10.867Z,1000.98
2018-01-06T06:40:10.841Z,1001.00
2018-01-06T06:41:10.818Z,1001.00
2018-01-06T06:42:10.795Z,1000.96
2018-01-06T06:43:10.771Z,1001.00
2018-01-06T06:44:10.747Z,1001.01
2018-01-06T06:45:10.728Z,1001.01
2018-01-06T06:46:10.697Z,1001.00
2018-01-06T06:47:10.673Z,1001.02
2018-01-06T06:48:10.650Z,1001.07
2018-01-06T06:49:10.625Z,1001.01
2018-01-06T06:50:10.602Z,1000.99
2018-01-06T06:51:10.576Z,1001.01
2018-01-06T06:52:10.552Z,1001.04
2018-01-06T06:53:10.529Z,1001.01
2018-01-06T06:54:10.504Z,1001.01
2018-01-06T06:55:10.732Z,1001.05
2018-01-06T06:56:10.455Z,1001.05
2018-01-06T06:57:10.432Z,1001.06
2018-01-06T06:58:10.411Z,1001.08
2018-01-06T06:59:10.382Z,1001.05
2018-01-06T07:00:10.358Z,1001.05
2018-01-06T07:01:10.334Z,1001.10
2018-01-06T07:02:10.309Z,1001.09
2018-01-06T07:03:10.286Z,1001.11
2018-01-06T07:04:10.262Z,1001.13
2018-01-06T07:05:10.238Z,1001.13
2018-01-06T07:06:10.213Z,1001.15
2018-01-06T07:07:10.190Z,1001.14
2018-01-06T07:08:10.164Z,1001.16
2018-01-06T07:09:10.141Z,1001.16
2018-01-06T07:10:10.117Z,1001.13
2018-01-06T07:11:10.093Z,1001.19
2018-01-06T07:12:10.067Z,1001.22
2018-01-06T07:13:10.043Z,1001.21
2018-01-06T07:14:10.019Z,1001.21
2018-01-06T07:15:09.996Z,1001.24
2018-01-06T07:16:09.971Z,1001.23
2018-01-06T07:17:09.946Z,1001.23
2018-01-06T07:18:09.922Z,1001.23
2018-01-06T07:19:09.898Z,1001.19
2018-01-06T07:20:09.873Z,1001.25
2018-01-06T07:21:09.850Z,1001.22
2018-01-06T07:22:09.975Z,1001.24
2018-01-06T07:23:09.803Z,1001.25
2018-01-06T07:24:09.779Z,1001.29
2018-01-06T07:25:09.753Z,1001.32
2018-01-06T07:26:09.730Z,1001.35
2018-01-06T07:27:09.706Z,1001.38
2018-01-06T07:28:09.680Z,1001.42
2018-01-06T07:29:09.660Z,1001.43
2018-01-06T07:30:09.632Z,1001.46
2018-01-06T07:31:09.609Z,1001.48
2018-01-06T07:32:09.684Z,1001.53
2018-01-06T07:33:09.560Z,1001.53
2018-01-06T07:34:09.536Z,1001.56
2018-01-06T07:35:09.512Z,1001.57
2018-01-06T07:36:09.488Z,1001.60
2018-01-06T07:37:09.567Z,1001.58
2018-01-06T07:38:09.440Z,1001.62
2018-01-06T07:39:09.414Z,1001.59
2018-01-06T07:40:09.389Z,1001.60
2018-01-06T07:41:09.366Z,1001.60
2018-01-06T07:42:09.592Z,1001.60
2018-01-06T07:43:09.318Z,1001.64
2018-01-06T07:44:09.292Z,1001.62
2018-01-06T07:45:09.269Z,1001.63
2018-01-06T07:46:09.245Z,1001.63
2018-01-06T07:47:09.221Z,1001.70
2018-01-06T07:48:09.194Z,1001.70
2018-01-06T07:49:09.170Z,1001.67
2018-01-06T07:50:09.146Z,1001.66
2018-01-06T07:51:09.123Z,1001.74
2018-01-06T07:52:09.097Z,1001.73
2018-01-06T07:53:09.324Z,1001.76
2018-01-06T07:54:09.049Z,1001.80
2018-01-06T07:55:09.026Z,1001.85
2018-01-06T07:56:09.001Z,1001.88
2018-01-06T07:57:08.976Z,1001.93
2018-01-06T07:58:09.202Z,1001.96
2018-01-06T07:59:08.929Z,1001.97
2018-01-06T08:00:08.903Z,1002.00
2018-01-06T08:01:08.879Z,1002.07
2018-01-06T08:02:08.855Z,1002.13
2018-01-06T08:03:08.831Z,1002.16
2018-01-06T08:04:08.805Z,1002.19
2018-01-06T08:05:08.781Z,1002.22
2018-01-06T08:06:08.758Z,1002.22
2018-01-06T08:07:08.733Z,1002.24
2018-01-06T08:08:08.708Z,1002.24
2018-01-06T08:09:08.683Z,1002.29
2018-01-06T08:10:08.660Z,1002.26
2018-01-06T08:11:08.635Z,1002.31
2018-01-06T08:12:08.609Z,1002.31
2018-01-06T08:13:08.586Z,1002.32
2018-01-06T08:14:08.560Z,1002.35
2018-01-06T08:15:08.537Z,1002.36
2018-01-06T08:16:08.516Z,1002.36
2018-01-06T08:17:08.488Z,1002.36
2018-01-06T08:18:08.464Z,1002.36
2018-01-06T08:19:08.440Z,1002.38
2018-01-06T08:20:08.413Z,1002.43
2018-01-06T08:21:08.389Z,1002.44
2018-01-06T08:22:08.366Z,1002.48
2018-01-06T08:23:08.342Z,1002.50
2018-01-06T08:24:08.320Z,1002.50
2018-01-06T08:25:08.291Z,1002.50
2018-01-06T08:26:08.517Z,1002.55
2018-01-06T08:27:08.244Z,1002.60
2018-01-06T08:28:08.219Z,1002.56
2018-01-06T08:29:08.194Z,1002.61
2018-01-06T08:30:08.170Z,1002.67
2018-01-06T08:31:08.146Z,1002.65
2018-01-06T08:32:08.121Z,1002.68
2018-01-06T08:33:08.126Z,1002.69
2018-01-06T08:34:08.072Z,1002.72
2018-01-06T08:35:08.047Z,1002.75
2018-01-06T08:36:08.023Z,1002.77
2018-01-06T08:37:07.999Z,1002.82
2018-01-06T08:38:07.977Z,1002.87
2018-01-06T08:39:07.950Z,1002.84
2018-01-06T08:40:08.025Z,1002.84
2018-01-06T08:41:07.901Z,1002.84
2018-01-06T08:42:07.877Z,1002.83
2018-01-06T08:43:07.853Z,1002.82
2018-01-06T08:44:07.826Z,1002.84
2018-01-06T08:45:07.802Z,1002.86
2018-01-06T08:46:07.778Z,1002.87
2018-01-06T08:47:07.754Z,1002.91
2018-01-06T08:48:07.728Z,1002.94
2018-01-06T08:49:07.704Z,1002.92
2018-01-06T08:50:07.930Z,1002.97
2018-01-06T08:51:07.657Z,1002.97
2018-01-06T08:52:07.630Z,1002.92
2018-01-06T08:53:07.607Z,1002.95
2018-01-06T08:54:07.583Z,1002.97
2018-01-06T08:55:07.559Z,1003.00
2018-01-06T08:56:07.533Z,1003.09
2018-01-06T08:57:07.510Z,1003.08
2018-01-06T08:58:07.734Z,1003.15
2018-01-06T08:59:07.461Z,1003.14
2018-01-06T09:00:07.435Z,1003.15
2018-01-06T09:01:07.412Z,1003.14
2018-01-06T09:02:07.387Z,1003.08
2018-01-06T09:03:07.364Z,1003.14
2018-01-06T09:04:07.338Z,1003.14
2018-01-06T09:05:07.314Z,1003.11
2018-01-06T09:06:07.291Z,1003.13
2018-01-06T09:07:07.268Z,1003.13
2018-01-06T09:08:07.242Z,1003.11
2018-01-06T09:09:07.318Z,1003.10
2018-01-06T09:10:07.194Z,1003.13
2018-01-06T09:11:07.170Z,1003.17
2018-01-06T09:12:07.144Z,1003.21
2018-01-06T09:13:07.119Z,1003.18
2018-01-06T09:14:07.295Z,1003.23
2018-01-06T09:15:07.074Z,1003.23
2018-01-06T09:16:07.046Z,1003.24
2018-01-06T09:17:07.027Z,1003.23
2018-01-06T09:18:06.999Z,1003.26
2018-01-06T09:19:06.974Z,1003.24
2018-01-06T09:20:06.949Z,1003.29
2018-01-06T09:21:06.926Z,1003.28
2018-01-06T09:22:06.902Z,1003.28
2018-01-06T09:23:06.877Z,1003.33
2018-01-06T09:24:06.919Z,1003.40
2018-01-06T09:25:06.827Z,1003.42
2018-01-06T09:26:06.804Z,1003.43
2018-01-06T09:27:06.779Z,1003.50
2018-01-06T09:28:06.756Z,1003.50
2018-01-06T09:29:06.730Z,1003.51
2018-01-06T09:30:06.708Z,1003.51
2018-01-06T09:31:06.684Z,1003.48
2018-01-06T09:32:06.659Z,1003.46
2018-01-06T09:33:06.636Z,1003.49
2018-01-06T09:34:06.610Z,1003.55
2018-01-06T09:35:06.586Z,1003.63
2018-01-06T09:36:06.567Z,1003.72
2018-01-06T09:37:06.538Z,1003.81
2018-01-06T09:38:06.515Z,1003.77
2018-01-06T09:39:06.492Z,1003.75
2018-01-06T09:40:06.466Z,1003.77
2018-01-06T09:41:06.443Z,1003.79
2018-01-06T09:42:06.419Z,1003.81
2018-01-06T09:43:06.396Z,1003.80
2018-01-06T09:44:06.370Z,1003.82
2018-01-06T09:45:06.348Z,1003.86
2018-01-06T09:46:06.323Z,1003.86
2018-01-06T09:47:06.299Z,1003.90
2018-01-06T09:48:06.276Z,1003.89
2018-01-06T09:49:06.289Z,1003.90
2018-01-06T09:50:06.228Z,1003.91
2018-01-06T09:51:06.204Z,1003.93
2018-01-06T09:52:06.180Z,1003.95
2018-01-06T09:53:06.156Z,1003.95
2018-01-06T09:54:06.132Z,1003.95
2018-01-06T09:55:06.109Z,1003.98
2018-01-06T09:56:06.088Z,1004.01
2018-01-06T09:57:06.061Z,1003.98
2018-01-06T09:58:06.037Z,1004.04
2018-01-06T09:59:06.012Z,1004.05
2018-01-06T10:00:05.990Z,1004.08
2018-01-06T10:01:05.964Z,1004.13
2018-01-06T10:02:05.940Z,1004.11
2018-01-06T10:03:05.920Z,1004.11
2018-01-06T10:04:05.893Z,1004.14
2018-01-06T10:05:05.871Z,1004.16
2018-01-06T10:06:05.845Z,1004.07
2018-01-06T10:07:05.821Z,1004.11
2018-01-06T10:08:05.797Z,1004.15
2018-01-06T10:09:05.774Z,1004.17
2018-01-06T10:10:05.749Z,1004.20
2018-01-06T10:11:05.726Z,1004.25
2018-01-06T10:12:05.700Z,1004.23
2018-01-06T10:13:05.678Z,1004.28
2018-01-06T10:14:05.653Z,1004.25
2018-01-06T10:15:05.630Z,1004.27
2018-01-06T10:16:05.606Z,1004.34
2018-01-06T10:17:05.581Z,1004.36
2018-01-06T10:18:05.558Z,1004.31
2018-01-06T10:19:05.534Z,1004.37
2018-01-06T10:20:06.561Z,1004.40
2018-01-06T10:21:05.485Z,1004.41
2018-01-06T10:22:05.502Z,1004.41
2018-01-06T10:23:05.439Z,1004.46
2018-01-06T10:24:05.414Z,1004.46
2018-01-06T10:25:05.391Z,1004.53
2018-01-06T10:26:05.616Z,1004.55
2018-01-06T10:27:05.343Z,1004.51
2018-01-06T10:28:05.317Z,1004.58
2018-01-06T10:29:05.295Z,1004.59
2018-01-06T10:30:05.270Z,1004.62
2018-01-06T10:31:05.347Z,1004.60
2018-01-06T10:32:05.221Z,1004.59
2018-01-06T10:33:05.197Z,1004.57
2018-01-06T10:34:05.174Z,1004.61
2018-01-06T10:35:05.151Z,1004.63
2018-01-06T10:36:05.125Z,1004.61
2018-01-06T10:37:05.102Z,1004.60
2018-01-06T10:38:05.079Z,1004.65
2018-01-06T10:39:05.053Z,1004.66
2018-01-06T10:40:05.031Z,1004.62
2018-01-06T10:41:05.005Z,1004.68
2018-01-06T10:42:04.981Z,1004.68
2018-01-06T10:43:04.956Z,1004.72
2018-01-06T10:44:04.933Z,1004.79
2018-01-06T10:45:04.908Z,1004.80
2018-01-06T10:46:04.985Z,1004.79
2018-01-06T10:47:04.860Z,1004.79
2018-01-06T10:48:04.836Z,1004.79
2018-01-06T10:49:04.835Z,1004.83
2018-01-06T10:50:04.789Z,1004.81
2018-01-06T10:51:04.764Z,1004.86
2018-01-06T10:52:04.740Z,1004.90
2018-01-06T10:53:04.726Z,1004.94
2018-01-06T10:54:04.692Z,1004.94
2018-01-06T10:55:04.670Z,1004.98
2018-01-06T10:56:04.644Z,1004.98
2018-01-06T10:57:04.621Z,1004.97
2018-01-06T10:58:04.597Z,1004.96
2018-01-06T10:59:04.573Z,1004.95
2018-01-06T11:00:04.549Z,1004.96
2018-01-06T11:01:04.526Z,1004.99
2018-01-06T11:02:04.502Z,1004.99
2018-01-06T11:03:04.578Z,1005.00
2018-01-06T11:04:04.458Z,1004.98
2018-01-06T11:05:04.430Z,1004.94
2018-01-06T11:06:04.405Z,1004.98
2018-01-06T11:07:04.383Z,1004.97
2018-01-06T11:08:04.357Z,1004.95
2018-01-06T11:09:04.335Z,1004.93
2018-01-06T11:10:04.312Z,1004.93
2018-01-06T11:11:04.289Z,1004.94
2018-01-06T11:12:04.264Z,1004.94
2018-01-06T11:13:04.242Z,1004.97
2018-01-06T11:14:04.218Z,1004.96
2018-01-06T11:15:04.194Z,1004.96
2018-01-06T11:16:04.171Z,1005.01
2018-01-06T11:17:04.146Z,1004.99
2018-01-06T11:18:04.125Z,1004.97
2018-01-06T11:19:04.117Z,1005.00
2018-01-06T11:20:04.077Z,1004.99
2018-01-06T11:21:04.055Z,1005.03
2018-01-06T11:22:04.031Z,1005.04
2018-01-06T11:23:04.008Z,1005.10
2018-01-06T11:24:03.983Z,1005.09
2018-01-06T11:25:03.961Z,1005.10
2018-01-06T11:26:04.187Z,1005.12
2018-01-06T11:27:03.915Z,1005.15
2018-01-06T11:28:03.890Z,1005.15
2018-01-06T11:29:03.866Z,1005.17
2018-01-06T11:33:03.774Z,1005.26
2018-01-06T11:34:03.752Z,1005.28
2018-01-06T11:35:03.729Z,1005.25
2018-01-06T11:36:03.705Z,1005.30
2018-01-06T11:37:03.682Z,1005.30
2018-01-06T11:38:03.659Z,1005.30
2018-01-06T11:39:03.637Z,1005.36
2018-01-06T11:40:03.613Z,1005.43
2018-01-06T11:41:03.590Z,1005.44
2018-01-06T11:42:03.569Z,1005.50
2018-01-06T11:43:03.545Z,1005.53
2018-01-06T11:44:03.523Z,1005.49
2018-01-06T11:45:03.500Z,1005.50
2018-01-06T11:46:03.477Z,1005.49
2018-01-06T11:47:03.456Z,1005.49
2018-01-06T11:48:03.432Z,1005.44
2018-01-06T11:49:03.410Z,1005.42
2018-01-06T11:50:03.387Z,1005.45
2018-01-06T11:51:03.365Z,1005.50
2018-01-06T11:52:03.341Z,1005.49
2018-01-06T11:53:03.320Z,1005.57
2018-01-06T11:54:03.300Z,1005.62
2018-01-06T11:55:03.275Z,1005.60
2018-01-06T11:56:03.253Z,1005.62
2018-01-06T11:57:03.531Z,1005.65
2018-01-06T11:58:03.208Z,1005.65
2018-01-06T11:59:03.186Z,1005.67
2018-01-06T12:00:03.165Z,1005.70
2018-01-06T12:01:03.141Z,1005.72
2018-01-06T12:02:03.118Z,1005.78
2018-01-06T12:03:03.097Z,1005.77
2018-01-06T12:04:03.072Z,1005.74
2018-01-06T12:05:03.050Z,1005.72
2018-01-06T12:06:03.028Z,1005.75
2018-01-06T12:07:03.009Z,1005.75
2018-01-06T12:08:02.984Z,1005.77
2018-01-06T12:09:02.961Z,1005.77
2018-01-06T12:10:02.941Z,1005.77
2018-01-06T12:11:02.918Z,1005.82
2018-01-06T12:12:02.894Z,1005.85
2018-01-06T12:13:02.972Z,1005.81
2018-01-06T12:14:02.889Z,1005.84
2018-01-06T12:15:02.828Z,1005.85
2018-01-06T12:16:02.805Z,1005.90
2018-01-06T12:17:02.784Z,1005.93
2018-01-06T12:18:02.762Z,1006.02